createdAt,value
2023-03-29T00:00:28.633Z,65.59
2023-03-29T00:02:00.265Z,66.11
2023-03-29T00:03:33.984Z,66.34
2023-03-29T00:05:06.651Z,66.48
2023-03-29T00:06:38.486Z,66.91
2023-03-29T00:08:14.426Z,66.65
2023-03-29T00:09:46.083Z,66.10
2023-03-29T00:11:17.779Z,66.65
2023-03-29T00:12:51.906Z,65.82
2023-03-29T00:14:23.523Z,66.31
2023-03-29T00:15:56.190Z,66.95
2023-03-29T00:17:28.547Z,66.77
2023-03-29T00:19:00.125Z,66.89
2023-03-29T00:20:31.737Z,68.13
2023-03-29T00:22:06.233Z,67.09
2023-03-29T00:23:37.797Z,66.97
2023-03-29T00:25:11.224Z,66.36
2023-03-29T00:26:42.846Z,66.04
2023-03-29T00:28:14.832Z,66.01
2023-03-29T00:29:46.589Z,66.87
2023-03-29T00:31:18.820Z,66.77
2023-03-29T00:32:51.452Z,67.28
2023-03-29T00:34:24.595Z,67.68
2023-03-29T00:35:56.306Z,67.79
2023-03-29T00:37:29.925Z,67.38
2023-03-29T00:39:01.653Z,67.33
2023-03-29T00:40:34.317Z,67.72
2023-03-29T00:42:05.888Z,67.66
2023-03-29T00:44:29.878Z,67.63
2023-03-29T00:46:01.490Z,68.19
2023-03-29T00:47:57.048Z,68.04
2023-03-29T00:49:29.290Z,68.04
2023-03-29T00:51:07.062Z,67.98
2023-03-29T00:52:42.526Z,67.97
2023-03-29T00:54:18.683Z,68.31
2023-03-29T00:55:57.750Z,67.68
2023-03-29T00:57:30.923Z,67.90
2023-03-29T00:59:07.089Z,67.75
2023-03-29T01:00:47.391Z,67.53
2023-03-29T01:02:22.897Z,67.77
2023-03-29T01:03:59.331Z,68.17
2023-03-29T01:05:39.270Z,68.02
2023-03-29T01:07:38.250Z,68.75
2023-03-29T01:09:13.684Z,68.63
2023-03-29T01:10:51.589Z,69.49
2023-03-29T01:12:28.076Z,69.30
2023-03-29T01:14:12.251Z,69.36
2023-03-29T01:15:45.888Z,69.60
2023-03-29T01:17:21.816Z,69.47
2023-03-29T01:18:53.417Z,69.61
2023-03-29T01:20:46.189Z,70.02
2023-03-29T01:22:39.592Z,69.61
2023-03-29T01:24:11.138Z,70.16
2023-03-29T01:26:44.744Z,70.38
2023-03-29T01:28:23.130Z,70.65
2023-03-29T01:30:07.693Z,70.42
2023-03-29T01:31:45.229Z,71.26
2023-03-29T01:33:23.593Z,70.48
2023-03-29T01:35:04.215Z,70.30
2023-03-29T01:37:07.603Z,70.12
2023-03-29T01:38:56.919Z,69.60
2023-03-29T01:40:28.556Z,69.61
2023-03-29T01:42:08.797Z,69.67
2023-03-29T01:44:02.163Z,69.56
2023-03-29T01:45:42.777Z,69.74
2023-03-29T01:47:19.011Z,69.71
2023-03-29T01:48:55.472Z,70.65
2023-03-29T01:50:29.984Z,71.05
2023-03-29T01:52:09.275Z,70.93
2023-03-29T01:53:54.752Z,71.54
2023-03-29T01:55:34.666Z,70.89
2023-03-29T01:57:10.564Z,71.36
2023-03-29T01:58:46.315Z,71.20
2023-03-29T02:00:24.708Z,71.40
2023-03-29T02:02:00.607Z,71.05
2023-03-29T02:03:34.537Z,71.43
2023-03-29T02:05:09.954Z,71.16
2023-03-29T02:06:42.854Z,71.14
2023-03-29T02:08:17.496Z,71.17
2023-03-29T02:09:52.707Z,71.29
2023-03-29T02:11:27.334Z,71.29
2023-03-29T02:12:59.376Z,71.13
2023-03-29T02:14:31.037Z,71.93
2023-03-29T02:16:09.752Z,71.91
2023-03-29T02:17:43.655Z,72.25
2023-03-29T02:19:17.092Z,72.41
2023-03-29T02:20:50.778Z,72.87
2023-03-29T02:22:31.637Z,72.50
2023-03-29T02:24:09.102Z,72.71
2023-03-29T02:25:45.556Z,72.74
2023-03-29T02:27:17.356Z,72.84
2023-03-29T02:28:49.015Z,72.81
2023-03-29T02:30:21.329Z,73.02
2023-03-29T02:31:55.584Z,73.11
2023-03-29T02:33:34.784Z,72.29
2023-03-29T02:35:26.641Z,72.24
2023-03-29T02:37:02.101Z,72.58
2023-03-29T02:38:35.800Z,73.23
2023-03-29T02:40:12.433Z,73.37
2023-03-29T02:41:49.259Z,73.63
2023-03-29T02:43:25.289Z,73.74
2023-03-29T02:45:00.573Z,73.34
2023-03-29T02:46:32.293Z,73.67
2023-03-29T02:48:09.062Z,73.64
2023-03-29T02:49:40.852Z,73.43
2023-03-29T02:51:20.181Z,73.15
2023-03-29T02:52:56.050Z,73.56
2023-03-29T02:54:32.194Z,73.68
2023-03-29T02:56:04.422Z,73.06
2023-03-29T02:57:38.317Z,72.83
2023-03-29T02:59:11.913Z,73.37
2023-03-29T03:00:46.706Z,73.49
2023-03-29T03:02:18.453Z,73.38
2023-03-29T03:03:51.926Z,73.37
2023-03-29T03:05:24.315Z,73.87
2023-03-29T03:06:56.287Z,73.91
2023-03-29T03:08:28.167Z,72.79
2023-03-29T03:09:59.842Z,73.40
2023-03-29T03:11:32.746Z,73.85
2023-03-29T03:13:04.343Z,73.73
2023-03-29T03:14:39.474Z,73.79
2023-03-29T03:16:11.133Z,74.22
2023-03-29T03:17:43.136Z,73.37
2023-03-29T03:19:15.330Z,73.48
2023-03-29T03:20:56.033Z,73.56
2023-03-29T03:22:27.933Z,73.09
2023-03-29T03:23:59.826Z,72.78
2023-03-29T03:25:32.348Z,73.17
2023-03-29T03:27:04.846Z,73.23
2023-03-29T03:28:36.591Z,73.94
2023-03-29T03:30:11.458Z,73.95
2023-03-29T03:32:09.056Z,74.35
2023-03-29T03:33:59.783Z,74.29
2023-03-29T03:35:42.456Z,74.52
2023-03-29T03:37:15.297Z,73.84
2023-03-29T03:38:47.649Z,73.88
2023-03-29T03:40:20.823Z,74.51
2023-03-29T03:41:52.822Z,74.48
2023-03-29T03:43:25.202Z,74.31
2023-03-29T03:44:57.253Z,74.64
2023-03-29T03:46:34.594Z,75.07
2023-03-29T03:48:09.674Z,74.63
2023-03-29T03:49:59.411Z,74.27
2023-03-29T03:51:31.298Z,74.14
2023-03-29T03:53:03.369Z,74.18
2023-03-29T03:54:54.000Z,73.99
2023-03-29T03:56:44.496Z,73.93
2023-03-29T03:58:23.279Z,74.54
2023-03-29T03:59:54.873Z,74.75
2023-03-29T04:01:32.073Z,74.87
2023-03-29T04:03:11.274Z,75.09
2023-03-29T04:04:43.077Z,75.25
2023-03-29T04:06:22.595Z,75.40
2023-03-29T04:08:17.092Z,75.32
2023-03-29T04:10:12.010Z,75.14
2023-03-29T04:11:56.764Z,74.96
2023-03-29T04:13:28.456Z,75.13
2023-03-29T04:15:29.685Z,74.96
2023-03-29T04:17:08.832Z,75.16
2023-03-29T04:19:06.500Z,75.36
2023-03-29T04:20:39.137Z,75.78
2023-03-29T04:22:10.816Z,75.80
2023-03-29T04:23:46.585Z,76.38
2023-03-29T04:25:18.961Z,76.04
2023-03-29T04:26:53.178Z,76.32
2023-03-29T04:28:28.657Z,75.66
2023-03-29T04:30:26.713Z,76.28
2023-03-29T04:32:16.603Z,74.66
2023-03-29T04:34:00.247Z,75.07
2023-03-29T04:35:32.555Z,74.66
2023-03-29T04:37:10.343Z,74.79
2023-03-29T04:38:47.428Z,73.36
2023-03-29T04:40:20.961Z,73.76
2023-03-29T04:42:08.826Z,73.76
2023-03-29T04:43:41.634Z,74.13
2023-03-29T04:45:21.502Z,74.04
2023-03-29T04:47:08.229Z,73.88
2023-03-29T04:48:55.379Z,73.35
2023-03-29T04:50:36.635Z,73.73
2023-03-29T04:52:09.116Z,72.88
2023-03-29T04:53:41.810Z,73.08
2023-03-29T04:55:13.609Z,72.84
2023-03-29T04:57:07.229Z,72.66
2023-03-29T04:58:57.227Z,72.19
2023-03-29T05:00:29.047Z,72.52
2023-03-29T05:02:03.011Z,72.61
2023-03-29T05:03:35.630Z,73.10
2023-03-29T05:05:19.244Z,73.07
2023-03-29T05:06:52.883Z,73.30
2023-03-29T05:08:24.788Z,72.73
2023-03-29T05:10:15.009Z,74.02
2023-03-29T05:11:47.174Z,74.37
2023-03-29T05:13:19.023Z,74.75
2023-03-29T05:14:51.171Z,74.81
2023-03-29T05:16:24.492Z,74.69
2023-03-29T05:17:59.175Z,74.28
2023-03-29T05:19:31.042Z,74.55
2023-03-29T05:21:04.349Z,74.39
2023-03-29T05:22:38.427Z,74.39
2023-03-29T05:24:12.292Z,74.85
2023-03-29T05:25:55.050Z,74.91
2023-03-29T05:27:26.696Z,74.06
2023-03-29T05:29:05.294Z,72.96
2023-03-29T05:30:37.028Z,72.63
2023-03-29T05:32:23.967Z,72.58
2023-03-29T05:33:55.939Z,72.50
2023-03-29T05:35:29.230Z,72.78
2023-03-29T05:37:02.218Z,72.11
2023-03-29T05:38:45.172Z,72.03
2023-03-29T05:40:17.390Z,71.54
2023-03-29T05:42:15.808Z,71.39
2023-03-29T05:43:55.439Z,71.75
2023-03-29T05:45:30.115Z,72.09
2023-03-29T05:47:01.995Z,71.96
2023-03-29T05:48:33.842Z,70.51
2023-03-29T05:50:08.950Z,69.88
2023-03-29T05:51:41.982Z,70.70
2023-03-29T05:53:18.442Z,70.70
2023-03-29T05:54:50.147Z,70.70
2023-03-29T05:56:22.505Z,70.50
2023-03-29T05:57:54.330Z,70.02
2023-03-29T05:59:30.252Z,70.88
2023-03-29T06:01:04.622Z,71.14
2023-03-29T06:02:53.991Z,71.74
2023-03-29T06:04:27.001Z,71.12
2023-03-29T06:06:17.715Z,71.67
2023-03-29T06:07:49.434Z,71.01
2023-03-29T06:09:35.925Z,71.56
2023-03-29T06:11:11.363Z,71.47
2023-03-29T06:13:06.376Z,71.24
2023-03-29T06:14:40.101Z,71.02
2023-03-29T06:16:25.925Z,70.08
2023-03-29T06:17:58.073Z,68.21
2023-03-29T06:19:29.868Z,68.79
2023-03-29T06:21:03.407Z,69.38
2023-03-29T06:22:36.128Z,69.31
2023-03-29T06:24:08.257Z,69.24
2023-03-29T06:25:46.136Z,68.27
2023-03-29T06:27:19.216Z,67.97
2023-03-29T06:28:52.290Z,67.17
2023-03-29T06:30:25.132Z,67.03
2023-03-29T06:31:58.911Z,67.63
2023-03-29T06:33:58.346Z,67.80
2023-03-29T06:35:42.196Z,68.03
2023-03-29T06:37:14.895Z,68.28
2023-03-29T06:38:47.184Z,68.10
2023-03-29T06:40:48.414Z,68.12
2023-03-29T06:42:22.000Z,67.84
2023-03-29T06:44:17.445Z,68.19
2023-03-29T06:46:04.180Z,68.06
2023-03-29T06:47:47.943Z,68.23
2023-03-29T06:49:20.013Z,67.96
2023-03-29T06:51:14.498Z,66.86
2023-03-29T06:52:47.183Z,66.95
2023-03-29T06:54:19.188Z,67.63
2023-03-29T06:56:05.356Z,67.18
2023-03-29T06:57:42.662Z,66.86
2023-03-29T06:59:14.697Z,67.65
2023-03-29T07:01:02.577Z,66.96
2023-03-29T07:02:56.657Z,66.12
2023-03-29T07:04:28.461Z,65.66
2023-03-29T07:06:23.773Z,65.65
2023-03-29T07:08:11.908Z,66.04
2023-03-29T07:09:56.302Z,65.02
2023-03-29T07:11:29.106Z,63.35
2023-03-29T07:13:02.819Z,63.05
2023-03-29T07:14:34.481Z,62.99
2023-03-29T07:16:06.869Z,63.08
2023-03-29T07:17:52.848Z,61.86
2023-03-29T07:19:27.203Z,61.82
2023-03-29T07:21:17.549Z,61.31
2023-03-29T07:22:53.065Z,60.83
2023-03-29T07:24:25.258Z,61.99
2023-03-29T07:25:56.862Z,61.22
2023-03-29T07:27:30.562Z,61.60
2023-03-29T07:29:02.224Z,61.31
2023-03-29T07:30:34.248Z,59.39
2023-03-29T07:32:21.396Z,61.90
2023-03-29T07:34:12.094Z,61.54
2023-03-29T07:35:47.979Z,61.89
2023-03-29T07:37:20.709Z,61.70
2023-03-29T07:38:53.979Z,60.65
2023-03-29T07:40:28.906Z,60.16
2023-03-29T07:42:03.545Z,59.94
2023-03-29T07:43:35.758Z,60.33
2023-03-29T07:45:08.816Z,60.29
2023-03-29T07:46:49.496Z,60.42
2023-03-29T07:48:22.232Z,60.29
2023-03-29T07:49:57.603Z,60.87
2023-03-29T07:51:29.413Z,60.24
2023-03-29T07:53:09.359Z,60.56
2023-03-29T07:54:41.397Z,59.81
2023-03-29T07:56:28.334Z,59.94
2023-03-29T07:58:18.757Z,59.03
2023-03-29T07:59:50.731Z,59.19
2023-03-29T08:01:26.995Z,59.39
2023-03-29T08:03:34.478Z,59.36
2023-03-29T08:05:07.029Z,58.55
2023-03-29T08:06:56.576Z,58.26
2023-03-29T08:08:35.619Z,57.54
2023-03-29T08:10:16.762Z,57.19
2023-03-29T08:12:07.805Z,57.84
2023-03-29T08:13:42.536Z,56.79
2023-03-29T08:15:35.415Z,56.44
2023-03-29T08:17:07.277Z,55.95
2023-03-29T08:18:44.537Z,55.63
2023-03-29T08:20:16.486Z,55.82
2023-03-29T08:21:50.560Z,56.81
2023-03-29T08:23:23.700Z,57.48
2023-03-29T08:25:24.797Z,57.97
2023-03-29T08:26:59.034Z,57.37
2023-03-29T08:28:30.772Z,56.62
2023-03-29T08:30:04.444Z,55.84
2023-03-29T08:31:38.740Z,56.33
2023-03-29T08:33:10.511Z,54.92
2023-03-29T08:34:42.279Z,55.31
2023-03-29T08:36:22.795Z,55.69
2023-03-29T08:37:56.860Z,55.22
2023-03-29T08:39:29.192Z,55.91
2023-03-29T08:41:49.850Z,55.20
2023-03-29T08:43:54.901Z,55.40
2023-03-29T08:46:35.487Z,55.05
2023-03-29T08:48:42.325Z,54.96
2023-03-29T08:50:16.504Z,54.21
2023-03-29T08:51:57.921Z,53.92
2023-03-29T08:53:33.406Z,52.76
2023-03-29T08:55:40.326Z,52.32
2023-03-29T08:57:48.805Z,53.06
2023-03-29T08:59:33.142Z,53.79
2023-03-29T09:01:09.456Z,55.40
2023-03-29T09:02:54.369Z,53.17
2023-03-29T09:04:33.286Z,52.38
2023-03-29T09:06:23.489Z,52.70
2023-03-29T09:08:01.313Z,53.39
2023-03-29T09:09:34.589Z,52.00
2023-03-29T09:12:02.076Z,52.25
2023-03-29T09:13:39.144Z,50.70
2023-03-29T09:15:16.164Z,50.46
2023-03-29T09:17:51.664Z,51.00
2023-03-29T09:19:52.653Z,49.74
2023-03-29T09:21:41.636Z,49.62
2023-03-29T09:23:22.444Z,48.88
2023-03-29T09:25:54.127Z,47.98
2023-03-29T09:27:44.519Z,47.81
2023-03-29T09:30:09.779Z,46.25
2023-03-29T09:31:53.369Z,47.26
2023-03-29T09:33:29.356Z,47.59
2023-03-29T09:35:21.337Z,46.88
2023-03-29T09:36:55.070Z,45.86
2023-03-29T09:38:30.549Z,44.70
2023-03-29T09:40:11.051Z,43.81
2023-03-29T09:41:53.603Z,43.25
2023-03-29T09:43:36.374Z,41.87
2023-03-29T09:45:11.522Z,38.94
2023-03-29T09:46:55.856Z,38.72
2023-03-29T09:48:37.746Z,37.71
2023-03-29T09:50:29.508Z,39.67
2023-03-29T09:52:08.076Z,38.38
2023-03-29T09:53:40.010Z,35.97
2023-03-29T09:55:40.180Z,31.33
2023-03-29T09:57:41.585Z,30.90
2023-03-29T09:59:13.864Z,30.98
2023-03-29T10:00:48.325Z,30.73
2023-03-29T10:02:21.764Z,29.98
2023-03-29T10:03:54.633Z,28.38
2023-03-29T10:05:31.865Z,25.33
2023-03-29T10:07:05.768Z,25.76
2023-03-29T10:08:58.790Z,24.93
2023-03-29T10:10:47.380Z,24.72
2023-03-29T10:12:19.899Z,22.54
2023-03-29T10:13:57.454Z,19.44
2023-03-29T10:15:30.774Z,21.52
2023-03-29T10:17:06.816Z,23.99
2023-03-29T10:18:42.957Z,26.05
2023-03-29T10:20:47.586Z,21.10
2023-03-29T10:22:25.467Z,20.45
2023-03-29T10:23:59.314Z,17.66
2023-03-29T10:25:32.880Z,17.32
2023-03-29T10:27:09.978Z,19.44
2023-03-29T10:28:41.803Z,20.68
2023-03-29T10:30:25.370Z,23.43
2023-03-29T10:31:57.183Z,22.52
2023-03-29T10:33:33.047Z,24.73
2023-03-29T10:35:07.713Z,27.06
2023-03-29T10:36:42.216Z,28.14
2023-03-29T10:38:16.461Z,29.24
2023-03-29T10:39:50.345Z,30.17
2023-03-29T10:41:23.111Z,31.49
2023-03-29T10:42:59.033Z,29.90
2023-03-29T10:44:36.578Z,30.57
2023-03-29T10:46:19.993Z,30.65
2023-03-29T10:47:51.967Z,31.63
2023-03-29T10:49:23.631Z,31.44
2023-03-29T10:50:58.466Z,31.30
2023-03-29T10:52:30.171Z,32.23
2023-03-29T10:54:02.856Z,32.66
2023-03-29T10:55:47.287Z,31.46
2023-03-29T10:57:48.956Z,32.17
2023-03-29T10:59:27.561Z,31.79
2023-03-29T11:00:59.693Z,32.30
2023-03-29T11:02:57.113Z,32.05
2023-03-29T11:04:49.124Z,32.81
2023-03-29T11:06:25.223Z,32.94
2023-03-29T11:08:05.625Z,33.47
2023-03-29T11:10:16.435Z,33.53
2023-03-29T11:12:04.491Z,34.41
2023-03-29T11:14:08.649Z,32.66
2023-03-29T11:15:40.202Z,32.61
2023-03-29T11:17:41.013Z,33.44
2023-03-29T11:19:27.938Z,32.91
2023-03-29T11:21:26.085Z,33.31
2023-03-29T11:23:17.172Z,34.27
2023-03-29T11:24:57.676Z,34.63
2023-03-29T11:26:34.627Z,33.94
2023-03-29T11:28:06.623Z,34.07
2023-03-29T11:30:00.417Z,34.68
2023-03-29T11:31:58.303Z,36.29
2023-03-29T11:34:03.717Z,35.97
2023-03-29T11:35:42.830Z,35.93
2023-03-29T11:37:28.536Z,36.61
2023-03-29T11:39:24.720Z,36.45
2023-03-29T11:41:21.610Z,37.60
2023-03-29T11:42:57.458Z,37.29
2023-03-29T11:44:31.499Z,36.95
2023-03-29T11:46:23.715Z,36.27
2023-03-29T11:47:58.875Z,37.09
2023-03-29T11:49:56.094Z,37.52
2023-03-29T11:51:37.981Z,36.93
2023-03-29T11:53:17.792Z,37.10
2023-03-29T11:54:58.660Z,35.50
2023-03-29T11:56:41.402Z,36.48
2023-03-29T11:58:39.142Z,35.71
2023-03-29T12:00:19.573Z,36.39
2023-03-29T12:02:02.080Z,36.35
2023-03-29T12:03:47.185Z,36.46
2023-03-29T12:05:23.648Z,36.32
2023-03-29T12:07:06.283Z,36.92
2023-03-29T12:09:03.025Z,36.24
2023-03-29T12:10:40.594Z,36.79
2023-03-29T12:12:37.123Z,37.64
2023-03-29T12:14:42.487Z,37.12
2023-03-29T12:16:43.784Z,36.03
2023-03-29T12:18:25.173Z,36.43
2023-03-29T12:20:11.070Z,36.96
2023-03-29T12:21:48.449Z,36.18
2023-03-29T12:23:22.834Z,36.57
2023-03-29T12:24:56.133Z,35.86
2023-03-29T12:26:57.791Z,36.81
2023-03-29T12:28:38.799Z,36.42
2023-03-29T12:30:29.243Z,35.78
2023-03-29T12:32:39.794Z,35.72
2023-03-29T12:35:11.608Z,36.13
2023-03-29T12:37:32.474Z,35.81
2023-03-29T12:39:24.393Z,36.86
2023-03-29T12:41:18.999Z,36.87
2023-03-29T12:43:20.855Z,35.92
2023-03-29T12:45:19.188Z,35.30
2023-03-29T12:47:02.546Z,35.21
2023-03-29T12:48:37.756Z,35.00
2023-03-29T12:50:52.842Z,35.97
2023-03-29T12:52:34.579Z,35.37
2023-03-29T12:54:32.902Z,35.67
2023-03-29T12:56:08.493Z,36.36
2023-03-29T12:57:42.106Z,36.81
2023-03-29T12:59:26.998Z,36.78
2023-03-29T13:01:25.321Z,36.36
2023-03-29T13:03:05.852Z,37.57
2023-03-29T13:05:00.350Z,37.22
2023-03-29T13:06:56.320Z,37.64
2023-03-29T13:08:44.051Z,37.36
2023-03-29T13:10:39.785Z,36.98
2023-03-29T13:12:11.316Z,37.49
2023-03-29T13:13:43.742Z,37.81
2023-03-29T13:15:16.670Z,37.30
2023-03-29T13:16:48.480Z,36.76
2023-03-29T13:18:41.803Z,37.61
2023-03-29T13:20:32.246Z,36.52
2023-03-29T13:22:22.482Z,36.74
2023-03-29T13:24:03.232Z,37.51
2023-03-29T13:25:46.874Z,37.88
2023-03-29T13:27:46.316Z,36.48
2023-03-29T13:29:48.051Z,37.43
2023-03-29T13:31:22.430Z,36.67
2023-03-29T13:33:31.611Z,37.09
2023-03-29T13:35:21.450Z,38.04
2023-03-29T13:37:14.378Z,38.49
2023-03-29T13:38:49.414Z,38.56
2023-03-29T13:40:44.029Z,38.56
2023-03-29T13:42:21.741Z,39.09
2023-03-29T13:43:55.324Z,37.81
2023-03-29T13:45:29.999Z,38.41
2023-03-29T13:47:04.718Z,38.96
2023-03-29T13:48:36.533Z,38.68
2023-03-29T13:50:20.689Z,38.97
2023-03-29T13:52:24.209Z,38.84
2023-03-29T13:54:07.496Z,37.87
2023-03-29T13:55:48.287Z,37.92
2023-03-29T13:57:25.474Z,37.56
2023-03-29T13:59:10.342Z,37.78
2023-03-29T14:00:48.349Z,38.10
2023-03-29T14:02:31.578Z,38.81
2023-03-29T14:04:06.385Z,40.89
2023-03-29T14:05:41.729Z,40.26
2023-03-29T14:07:14.795Z,39.50
2023-03-29T14:08:49.474Z,40.21
2023-03-29T14:10:34.378Z,42.32
2023-03-29T14:12:07.966Z,43.10
2023-03-29T14:13:39.644Z,44.72
2023-03-29T14:15:38.160Z,44.80
2023-03-29T14:17:17.906Z,46.91
2023-03-29T14:18:51.386Z,46.40
2023-03-29T14:20:23.996Z,45.56
2023-03-29T14:21:57.439Z,48.38
2023-03-29T14:23:31.756Z,48.58
2023-03-29T14:25:14.452Z,48.24
2023-03-29T14:26:47.584Z,50.46
2023-03-29T14:28:27.889Z,51.33
2023-03-29T14:30:00.768Z,54.79
2023-03-29T14:31:38.587Z,52.75
2023-03-29T14:33:27.981Z,49.58
2023-03-29T14:35:00.441Z,50.54
2023-03-29T14:36:33.765Z,46.79
2023-03-29T14:38:05.515Z,45.42
2023-03-29T14:39:38.252Z,45.42
2023-03-29T14:41:10.086Z,46.65
2023-03-29T14:42:41.778Z,48.13
2023-03-29T14:44:14.610Z,47.26
2023-03-29T14:45:46.421Z,44.97
2023-03-29T14:47:26.604Z,43.12
2023-03-29T14:48:58.895Z,43.88
2023-03-29T14:50:31.384Z,44.21
2023-03-29T14:52:03.496Z,44.11
2023-03-29T14:53:38.045Z,41.79
2023-03-29T14:55:11.387Z,41.15
2023-03-29T14:56:43.179Z,41.47
2023-03-29T14:58:28.451Z,40.66
2023-03-29T15:00:02.706Z,41.37
2023-03-29T15:01:44.444Z,40.88
2023-03-29T15:03:17.265Z,39.79
2023-03-29T15:05:15.233Z,39.58
2023-03-29T15:06:47.080Z,38.48
2023-03-29T15:08:29.623Z,38.75
2023-03-29T15:10:02.348Z,38.59
2023-03-29T15:11:34.665Z,38.66
2023-03-29T15:13:08.335Z,37.40
2023-03-29T15:14:39.952Z,37.27
2023-03-29T15:16:15.207Z,37.53
2023-03-29T15:17:51.017Z,37.68
2023-03-29T15:19:26.098Z,38.72
2023-03-29T15:20:58.721Z,39.83
2023-03-29T15:22:34.277Z,40.64
2023-03-29T15:24:06.318Z,40.19
2023-03-29T15:25:46.222Z,39.10
2023-03-29T15:27:19.612Z,39.82
2023-03-29T15:28:57.475Z,40.41
2023-03-29T15:30:35.974Z,41.09
2023-03-29T15:32:09.530Z,39.83
2023-03-29T15:33:42.048Z,40.62
2023-03-29T15:35:24.670Z,39.90
2023-03-29T15:36:57.936Z,39.08
2023-03-29T15:38:40.886Z,39.37
2023-03-29T15:40:22.052Z,39.38
2023-03-29T15:41:55.275Z,40.09
2023-03-29T15:43:27.256Z,39.78
2023-03-29T15:44:58.804Z,39.41
2023-03-29T15:46:32.198Z,39.00
2023-03-29T15:48:22.405Z,39.19
2023-03-29T15:49:54.034Z,37.89
2023-03-29T15:51:25.740Z,36.69
2023-03-29T15:53:05.369Z,37.51
2023-03-29T15:54:44.209Z,39.40
2023-03-29T15:56:20.604Z,38.23
2023-03-29T15:57:54.362Z,38.80
2023-03-29T15:59:26.311Z,40.31
2023-03-29T16:01:16.113Z,40.72
2023-03-29T16:02:48.009Z,41.29
2023-03-29T16:04:21.429Z,40.61
2023-03-29T16:05:56.643Z,40.77
2023-03-29T16:07:31.297Z,41.66
2023-03-29T16:09:07.168Z,42.06
2023-03-29T16:10:40.340Z,42.27
2023-03-29T16:12:13.283Z,42.35
2023-03-29T16:13:45.023Z,42.86
2023-03-29T16:15:22.497Z,42.39
2023-03-29T16:16:55.519Z,44.73
2023-03-29T16:18:27.333Z,44.32
2023-03-29T16:19:58.934Z,44.80
2023-03-29T16:21:30.505Z,45.20
2023-03-29T16:23:08.656Z,46.44
2023-03-29T16:24:40.505Z,45.19
2023-03-29T16:26:16.777Z,46.52
2023-03-29T16:27:49.052Z,46.06
2023-03-29T16:29:20.746Z,45.18
2023-03-29T16:30:52.333Z,46.66
2023-03-29T16:32:24.084Z,43.55
2023-03-29T16:33:55.758Z,46.37
2023-03-29T16:35:30.062Z,46.09
2023-03-29T16:37:01.926Z,47.04
2023-03-29T16:38:33.812Z,47.61
2023-03-29T16:40:07.794Z,45.35
2023-03-29T16:41:40.869Z,46.08
2023-03-29T16:43:16.250Z,44.98
2023-03-29T16:44:47.874Z,44.93
2023-03-29T16:46:19.491Z,46.28
2023-03-29T16:47:51.714Z,46.81
2023-03-29T16:49:24.364Z,48.13
2023-03-29T16:50:56.901Z,45.78
2023-03-29T16:52:28.494Z,45.65
2023-03-29T16:54:00.769Z,46.40
2023-03-29T16:55:32.400Z,46.59
2023-03-29T16:57:04.206Z,47.29
2023-03-29T16:58:36.214Z,46.92
2023-03-29T17:00:10.921Z,47.07
2023-03-29T17:01:42.795Z,47.73
2023-03-29T17:03:14.425Z,47.34
2023-03-29T17:04:46.247Z,47.67
2023-03-29T17:06:17.914Z,48.07
2023-03-29T17:07:49.555Z,48.92
2023-03-29T17:09:21.201Z,48.82
2023-03-29T17:10:55.594Z,48.82
2023-03-29T17:12:27.471Z,49.50
2023-03-29T17:14:00.116Z,49.63
2023-03-29T17:15:31.886Z,49.66
2023-03-29T17:17:04.025Z,50.08
2023-03-29T17:18:35.680Z,50.07
2023-03-29T17:20:11.836Z,50.60
2023-03-29T17:21:43.583Z,50.87
2023-03-29T17:23:15.340Z,51.06
2023-03-29T17:24:46.882Z,51.07
2023-03-29T17:26:18.455Z,51.83
2023-03-29T17:27:51.082Z,51.83
2023-03-29T17:29:22.651Z,52.60
2023-03-29T17:30:54.313Z,51.54
2023-03-29T17:32:26.259Z,52.25
2023-03-29T17:33:58.432Z,51.81
2023-03-29T17:35:30.724Z,51.68
2023-03-29T17:37:03.648Z,52.43
2023-03-29T17:38:35.440Z,52.85
2023-03-29T17:40:14.156Z,52.54
2023-03-29T17:41:47.122Z,50.52
2023-03-29T17:43:18.742Z,51.08
2023-03-29T17:44:50.726Z,52.00
2023-03-29T17:46:22.933Z,51.24
2023-03-29T17:47:54.887Z,50.76
2023-03-29T17:49:26.514Z,50.87
2023-03-29T17:50:58.537Z,52.16
2023-03-29T17:52:30.382Z,52.83
2023-03-29T17:54:02.176Z,53.44
2023-03-29T17:55:33.800Z,53.91
2023-03-29T17:57:05.571Z,53.81
2023-03-29T17:58:37.243Z,53.58
2023-03-29T18:00:12.188Z,54.50
2023-03-29T18:01:44.144Z,54.21
2023-03-29T18:03:15.833Z,54.68
2023-03-29T18:04:48.216Z,54.82
2023-03-29T18:06:21.105Z,55.19
2023-03-29T18:07:52.813Z,55.27
2023-03-29T18:09:27.072Z,54.86
2023-03-29T18:11:16.089Z,55.35
2023-03-29T18:12:47.815Z,55.13
2023-03-29T18:14:21.291Z,55.72
2023-03-29T18:15:56.670Z,56.30
2023-03-29T18:17:28.619Z,56.61
2023-03-29T18:19:00.332Z,56.95
2023-03-29T18:20:31.953Z,57.32
2023-03-29T18:22:03.605Z,56.93
2023-03-29T18:23:35.701Z,57.19
2023-03-29T18:25:09.541Z,57.83
2023-03-29T18:26:41.372Z,57.99
2023-03-29T18:28:12.912Z,58.78
2023-03-29T18:29:44.812Z,58.48
2023-03-29T18:31:17.303Z,58.42
2023-03-29T18:32:49.021Z,58.14
2023-03-29T18:34:20.777Z,58.54
2023-03-29T18:35:52.510Z,58.40
2023-03-29T18:37:24.257Z,58.84
2023-03-29T18:39:04.164Z,59.26
2023-03-29T18:40:35.917Z,59.87
2023-03-29T18:42:09.658Z,60.19
2023-03-29T18:43:44.228Z,59.53
2023-03-29T18:45:16.371Z,59.50
2023-03-29T18:46:48.143Z,59.85
2023-03-29T18:48:19.850Z,59.52
2023-03-29T18:49:51.392Z,59.28
2023-03-29T18:51:23.649Z,59.60
2023-03-29T18:52:55.279Z,59.47
2023-03-29T18:54:27.003Z,59.29
2023-03-29T18:55:58.756Z,59.44
2023-03-29T18:57:30.556Z,59.70
2023-03-29T18:59:06.198Z,60.19
2023-03-29T19:00:39.633Z,59.18
2023-03-29T19:02:11.424Z,59.12
2023-03-29T19:03:43.482Z,59.07
2023-03-29T19:05:15.239Z,59.39
2023-03-29T19:06:47.548Z,59.70
2023-03-29T19:08:19.189Z,60.11
2023-03-29T19:09:50.763Z,59.71
2023-03-29T19:11:22.987Z,60.33
2023-03-29T19:12:54.609Z,60.07
2023-03-29T19:14:26.425Z,60.63
2023-03-29T19:15:58.399Z,60.92
2023-03-29T19:17:30.791Z,61.51
2023-03-29T19:19:02.706Z,61.42
2023-03-29T19:20:38.190Z,61.30
2023-03-29T19:22:09.836Z,61.77
2023-03-29T19:23:41.838Z,61.65
2023-03-29T19:25:13.781Z,62.06
2023-03-29T19:26:47.873Z,62.02
2023-03-29T19:28:19.665Z,61.81
2023-03-29T19:29:51.426Z,61.59
2023-03-29T19:31:23.308Z,62.18
2023-03-29T19:32:54.988Z,62.87
2023-03-29T19:34:27.100Z,62.52
2023-03-29T19:35:59.007Z,63.45
2023-03-29T19:37:30.756Z,63.37
2023-03-29T19:39:02.458Z,64.24
2023-03-29T19:40:34.160Z,63.94
2023-03-29T19:42:05.756Z,63.79
2023-03-29T19:43:37.433Z,64.43
2023-03-29T19:45:10.329Z,63.88
2023-03-29T19:46:42.042Z,64.53
2023-03-29T19:48:21.763Z,64.64
2023-03-29T19:49:54.921Z,64.47
2023-03-29T19:51:27.536Z,64.85
2023-03-29T19:52:59.295Z,64.47
2023-03-29T19:54:30.990Z,64.30
2023-03-29T19:56:04.266Z,64.59
2023-03-29T19:57:36.303Z,65.06
2023-03-29T19:59:11.046Z,64.37
2023-03-29T20:00:43.181Z,65.07
2023-03-29T20:02:15.032Z,65.25
2023-03-29T20:03:50.692Z,65.33
2023-03-29T20:05:22.759Z,65.24
2023-03-29T20:06:54.862Z,65.70
2023-03-29T20:08:26.985Z,65.15
2023-03-29T20:09:58.592Z,64.95
2023-03-29T20:11:30.576Z,65.04
2023-03-29T20:13:02.316Z,65.07
2023-03-29T20:14:34.578Z,65.19
2023-03-29T20:16:16.948Z,65.12
2023-03-29T20:17:48.767Z,65.38
2023-03-29T20:19:25.302Z,65.16
2023-03-29T20:20:57.002Z,65.45
2023-03-29T20:22:31.384Z,66.08
2023-03-29T20:24:04.797Z,65.32
2023-03-29T20:25:37.025Z,65.35
2023-03-29T20:27:08.740Z,65.43
2023-03-29T20:28:40.610Z,66.05
2023-03-29T20:30:13.456Z,66.09
2023-03-29T20:31:46.475Z,65.91
2023-03-29T20:33:19.059Z,65.50
2023-03-29T20:34:51.125Z,66.41
2023-03-29T20:36:23.338Z,66.42
2023-03-29T20:37:56.718Z,67.26
2023-03-29T20:39:29.647Z,66.47
2023-03-29T20:41:03.291Z,66.64
2023-03-29T20:42:38.966Z,66.64
2023-03-29T20:44:12.980Z,66.72
2023-03-29T20:45:52.792Z,67.16
2023-03-29T20:47:27.613Z,67.11
2023-03-29T20:49:04.665Z,66.85
2023-03-29T20:50:38.313Z,66.95
2023-03-29T20:52:17.234Z,66.99
2023-03-29T20:53:49.108Z,67.98
2023-03-29T20:55:24.457Z,67.95
2023-03-29T20:56:56.143Z,68.13
2023-03-29T20:58:29.114Z,68.58
2023-03-29T21:00:01.883Z,68.63
2023-03-29T21:01:35.106Z,68.20
2023-03-29T21:03:08.629Z,68.40
2023-03-29T21:04:40.716Z,68.67
2023-03-29T21:06:14.450Z,68.33
2023-03-29T21:07:48.065Z,68.81